sensor_id;sensor_type;location;lat;lon;timestamp;temperature;humidity
12568;DHT22;6349;50.904;6.136;2023-07-22T00:01:08;14.80;99.90
12568;DHT22;6349;50.904;6.136;2023-07-22T00:03:10;14.80;99.90
12568;DHT22;6349;50.904;6.136;2023-07-22T00:05:10;14.80;99.90
12568;DHT22;6349;50.904;6.136;2023-07-22T00:07:12;14.80;99.90
12568;DHT22;6349;50.904;6.136;2023-07-22T00:09:14;14.70;99.90
12568;DHT22;6349;50.904;6.136;2023-07-22T00:11:16;14.70;99.90
12568;DHT22;6349;50.904;6.136;2023-07-22T00:13:18;14.70;99.90
12568;DHT22;6349;50.904;6.136;2023-07-22T00:15:20;14.70;99.90
12568;DHT22;6349;50.904;6.136;2023-07-22T00:17:22;14.70;99.90
12568;DHT22;6349;50.904;6.136;2023-07-22T00:19:26;14.70;99.90
12568;DHT22;6349;50.904;6.136;2023-07-22T00:21:27;14.60;99.90
12568;DHT22;6349;50.904;6.136;2023-07-22T00:23:30;14.70;99.90
12568;DHT22;6349;50.904;6.136;2023-07-22T00:25:31;14.70;99.90
12568;DHT22;6349;50.904;6.136;2023-07-22T00:27:31;14.70;99.90
12568;DHT22;6349;50.904;6.136;2023-07-22T00:29:32;14.70;99.90
12568;DHT22;6349;50.904;6.136;2023-07-22T00:31:34;14.60;99.90
12568;DHT22;6349;50.904;6.136;2023-07-22T00:33:35;14.70;99.90
12568;DHT22;6349;50.904;6.136;2023-07-22T00:35:37;14.70;99.90
12568;DHT22;6349;50.904;6.136;2023-07-22T00:37:39;14.60;99.90
12568;DHT22;6349;50.904;6.136;2023-07-22T00:39:41;14.60;99.90
12568;DHT22;6349;50.904;6.136;2023-07-22T00:41:43;14.60;99.90
12568;DHT22;6349;50.904;6.136;2023-07-22T00:43:46;14.50;99.90
12568;DHT22;6349;50.904;6.136;2023-07-22T00:45:47;14.50;99.90
12568;DHT22;6349;50.904;6.136;2023-07-22T00:47:48;14.50;99.90
12568;DHT22;6349;50.904;6.136;2023-07-22T00:49:49;14.50;99.90
12568;DHT22;6349;50.904;6.136;2023-07-22T00:51:52;14.50;99.90
12568;DHT22;6349;50.904;6.136;2023-07-22T00:53:54;14.50;99.90
12568;DHT22;6349;50.904;6.136;2023-07-22T00:55:55;14.50;99.90
12568;DHT22;6349;50.904;6.136;2023-07-22T00:57:57;14.50;99.90
12568;DHT22;6349;50.904;6.136;2023-07-22T00:59:59;14.50;99.90
12568;DHT22;6349;50.904;6.136;2023-07-22T01:02:01;14.50;99.90
12568;DHT22;6349;50.904;6.136;2023-07-22T01:04:03;14.60;99.90
12568;DHT22;6349;50.904;6.136;2023-07-22T01:06:05;14.70;99.90
12568;DHT22;6349;50.904;6.136;2023-07-22T01:08:06;14.80;99.90
12568;DHT22;6349;50.904;6.136;2023-07-22T01:10:08;14.80;99.90
12568;DHT22;6349;50.904;6.136;2023-07-22T01:12:10;14.80;99.90
12568;DHT22;6349;50.904;6.136;2023-07-22T01:14:12;14.70;99.90
12568;DHT22;6349;50.904;6.136;2023-07-22T01:16:13;14.70;99.90
12568;DHT22;6349;50.904;6.136;2023-07-22T01:18:14;14.60;99.90
12568;DHT22;6349;50.904;6.136;2023-07-22T01:20:15;14.50;99.90
12568;DHT22;6349;50.904;6.136;2023-07-22T01:22:18;14.40;99.90
12568;DHT22;6349;50.904;6.136;2023-07-22T01:24:19;14.30;99.90
12568;DHT22;6349;50.904;6.136;2023-07-22T01:26:21;14.20;99.90
12568;DHT22;6349;50.904;6.136;2023-07-22T01:28:23;14.10;99.90
12568;DHT22;6349;50.904;6.136;2023-07-22T01:30:25;14.00;99.90
12568;DHT22;6349;50.904;6.136;2023-07-22T01:32:27;14.00;99.90
12568;DHT22;6349;50.904;6.136;2023-07-22T01:34:29;14.00;99.90
12568;DHT22;6349;50.904;6.136;2023-07-22T01:36:33;14.00;99.90
12568;DHT22;6349;50.904;6.136;2023-07-22T01:38:35;13.90;99.90
12568;DHT22;6349;50.904;6.136;2023-07-22T01:40:37;13.90;99.90
12568;DHT22;6349;50.904;6.136;2023-07-22T01:42:41;13.90;99.90
12568;DHT22;6349;50.904;6.136;2023-07-22T01:44:43;13.90;99.90
12568;DHT22;6349;50.904;6.136;2023-07-22T01:46:44;13.80;99.90
12568;DHT22;6349;50.904;6.136;2023-07-22T01:48:44;13.80;99.90
12568;DHT22;6349;50.904;6.136;2023-07-22T01:50:46;13.70;99.90
12568;DHT22;6349;50.904;6.136;2023-07-22T01:52:49;13.80;99.90
12568;DHT22;6349;50.904;6.136;2023-07-22T01:54:50;13.70;99.90
12568;DHT22;6349;50.904;6.136;2023-07-22T01:56:52;13.70;99.90
12568;DHT22;6349;50.904;6.136;2023-07-22T01:58:54;13.70;99.90
12568;DHT22;6349;50.904;6.136;2023-07-22T02:00:56;13.70;99.90
12568;DHT22;6349;50.904;6.136;2023-07-22T02:02:57;13.70;99.90
12568;DHT22;6349;50.904;6.136;2023-07-22T02:04:57;13.70;99.90
12568;DHT22;6349;50.904;6.136;2023-07-22T02:06:59;13.70;99.90
12568;DHT22;6349;50.904;6.136;2023-07-22T02:09:01;13.70;99.90
12568;DHT22;6349;50.904;6.136;2023-07-22T02:11:08;13.70;99.90
12568;DHT22;6349;50.904;6.136;2023-07-22T02:13:10;13.70;99.90
12568;DHT22;6349;50.904;6.136;2023-07-22T02:15:13;13.60;99.90
12568;DHT22;6349;50.904;6.136;2023-07-22T02:17:13;13.60;99.90
12568;DHT22;6349;50.904;6.136;2023-07-22T02:19:14;13.60;99.90
12568;DHT22;6349;50.904;6.136;2023-07-22T02:21:16;13.60;99.90
12568;DHT22;6349;50.904;6.136;2023-07-22T02:23:18;13.60;99.90
12568;DHT22;6349;50.904;6.136;2023-07-22T02:25:20;13.60;99.90
12568;DHT22;6349;50.904;6.136;2023-07-22T02:27:21;13.60;99.90
12568;DHT22;6349;50.904;6.136;2023-07-22T02:29:22;13.60;99.90
12568;DHT22;6349;50.904;6.136;2023-07-22T02:31:24;13.60;99.90
12568;DHT22;6349;50.904;6.136;2023-07-22T02:33:26;13.60;99.90
12568;DHT22;6349;50.904;6.136;2023-07-22T02:35:27;13.50;99.90
12568;DHT22;6349;50.904;6.136;2023-07-22T02:37:29;13.60;99.90
12568;DHT22;6349;50.904;6.136;2023-07-22T02:39:31;13.50;99.90
12568;DHT22;6349;50.904;6.136;2023-07-22T02:41:33;13.50;99.90
12568;DHT22;6349;50.904;6.136;2023-07-22T02:43:35;13.40;99.90
12568;DHT22;6349;50.904;6.136;2023-07-22T02:45:36;13.40;99.90
12568;DHT22;6349;50.904;6.136;2023-07-22T02:47:37;13.40;99.90
12568;DHT22;6349;50.904;6.136;2023-07-22T02:49:37;13.40;99.90
12568;DHT22;6349;50.904;6.136;2023-07-22T02:51:39;13.40;99.90
12568;DHT22;6349;50.904;6.136;2023-07-22T02:53:41;13.40;99.90
12568;DHT22;6349;50.904;6.136;2023-07-22T02:55:44;13.40;99.90
12568;DHT22;6349;50.904;6.136;2023-07-22T02:57:47;13.40;99.90
12568;DHT22;6349;50.904;6.136;2023-07-22T02:59:49;13.30;99.90
12568;DHT22;6349;50.904;6.136;2023-07-22T03:01:50;13.30;99.90
12568;DHT22;6349;50.904;6.136;2023-07-22T03:03:50;13.30;99.90
12568;DHT22;6349;50.904;6.136;2023-07-22T03:05:53;13.30;99.90
12568;DHT22;6349;50.904;6.136;2023-07-22T03:07:54;13.20;99.90
12568;DHT22;6349;50.904;6.136;2023-07-22T03:09:54;13.30;99.90
12568;DHT22;6349;50.904;6.136;2023-07-22T03:11:56;13.30;99.90
12568;DHT22;6349;50.904;6.136;2023-07-22T03:13:57;13.30;99.90
12568;DHT22;6349;50.904;6.136;2023-07-22T03:15:58;13.30;99.90
12568;DHT22;6349;50.904;6.136;2023-07-22T03:17:58;13.30;99.90
12568;DHT22;6349;50.904;6.136;2023-07-22T03:20:01;13.20;99.90
12568;DHT22;6349;50.904;6.136;2023-07-22T03:22:01;13.30;99.90
12568;DHT22;6349;50.904;6.136;2023-07-22T03:24:04;13.30;99.90
12568;DHT22;6349;50.904;6.136;2023-07-22T03:26:07;13.30;99.90
12568;DHT22;6349;50.904;6.136;2023-07-22T03:28:09;13.30;99.90
12568;DHT22;6349;50.904;6.136;2023-07-22T03:30:15;13.30;99.90
12568;DHT22;6349;50.904;6.136;2023-07-22T03:32:15;13.30;99.90
12568;DHT22;6349;50.904;6.136;2023-07-22T03:34:16;13.40;99.90
12568;DHT22;6349;50.904;6.136;2023-07-22T03:36:18;13.50;99.90
12568;DHT22;6349;50.904;6.136;2023-07-22T03:38:19;13.70;99.90
12568;DHT22;6349;50.904;6.136;2023-07-22T03:40:20;13.90;99.90
12568;DHT22;6349;50.904;6.136;2023-07-22T03:42:22;14.00;99.90
12568;DHT22;6349;50.904;6.136;2023-07-22T03:44:26;14.20;99.90
12568;DHT22;6349;50.904;6.136;2023-07-22T03:46:29;14.30;99.90
12568;DHT22;6349;50.904;6.136;2023-07-22T03:48:29;14.40;99.90
12568;DHT22;6349;50.904;6.136;2023-07-22T03:50:31;14.40;99.90
12568;DHT22;6349;50.904;6.136;2023-07-22T03:52:33;14.50;99.90
12568;DHT22;6349;50.904;6.136;2023-07-22T03:54:35;14.50;99.90
12568;DHT22;6349;50.904;6.136;2023-07-22T03:56:39;14.50;99.90
12568;DHT22;6349;50.904;6.136;2023-07-22T03:58:40;14.50;99.90
12568;DHT22;6349;50.904;6.136;2023-07-22T04:00:42;14.30;99.90
12568;DHT22;6349;50.904;6.136;2023-07-22T04:02:42;14.20;99.90
12568;DHT22;6349;50.904;6.136;2023-07-22T04:04:43;14.20;99.90
12568;DHT22;6349;50.904;6.136;2023-07-22T04:06:45;14.30;99.90
12568;DHT22;6349;50.904;6.136;2023-07-22T04:08:45;14.30;99.90
12568;DHT22;6349;50.904;6.136;2023-07-22T04:10:55;14.40;99.90
12568;DHT22;6349;50.904;6.136;2023-07-22T04:12:56;14.40;99.90
12568;DHT22;6349;50.904;6.136;2023-07-22T04:14:58;14.50;99.90
12568;DHT22;6349;50.904;6.136;2023-07-22T04:16:58;14.50;99.90
12568;DHT22;6349;50.904;6.136;2023-07-22T04:18:59;14.40;99.90
12568;DHT22;6349;50.904;6.136;2023-07-22T04:21:01;14.40;99.90
12568;DHT22;6349;50.904;6.136;2023-07-22T04:23:03;14.40;99.90
12568;DHT22;6349;50.904;6.136;2023-07-22T04:25:05;14.50;99.90
12568;DHT22;6349;50.904;6.136;2023-07-22T04:27:06;14.50;99.90
12568;DHT22;6349;50.904;6.136;2023-07-22T04:29:08;14.50;99.90
12568;DHT22;6349;50.904;6.136;2023-07-22T04:31:10;14.40;99.90
12568;DHT22;6349;50.904;6.136;2023-07-22T04:33:12;14.40;99.90
12568;DHT22;6349;50.904;6.136;2023-07-22T04:35:16;14.40;99.90
12568;DHT22;6349;50.904;6.136;2023-07-22T04:37:19;14.40;99.90
12568;DHT22;6349;50.904;6.136;2023-07-22T04:39:20;14.40;99.90
12568;DHT22;6349;50.904;6.136;2023-07-22T04:41:23;14.30;99.90
12568;DHT22;6349;50.904;6.136;2023-07-22T04:43:24;14.30;99.90
12568;DHT22;6349;50.904;6.136;2023-07-22T04:45:26;14.30;99.90
12568;DHT22;6349;50.904;6.136;2023-07-22T04:47:28;14.30;99.90
12568;DHT22;6349;50.904;6.136;2023-07-22T04:49:30;14.30;99.90
12568;DHT22;6349;50.904;6.136;2023-07-22T04:51:31;14.30;99.90
12568;DHT22;6349;50.904;6.136;2023-07-22T04:53:33;14.30;99.90
12568;DHT22;6349;50.904;6.136;2023-07-22T04:55:35;14.30;99.90
12568;DHT22;6349;50.904;6.136;2023-07-22T04:57:42;14.20;99.90
12568;DHT22;6349;50.904;6.136;2023-07-22T04:59:43;14.20;99.90
12568;DHT22;6349;50.904;6.136;2023-07-22T05:01:45;14.20;99.90
12568;DHT22;6349;50.904;6.136;2023-07-22T05:03:47;14.30;99.90
12568;DHT22;6349;50.904;6.136;2023-07-22T05:05:49;14.40;99.90
12568;DHT22;6349;50.904;6.136;2023-07-22T05:07:51;14.40;99.90
12568;DHT22;6349;50.904;6.136;2023-07-22T05:09:52;14.40;99.90
12568;DHT22;6349;50.904;6.136;2023-07-22T05:11:55;14.40;99.90
12568;DHT22;6349;50.904;6.136;2023-07-22T05:13:55;14.50;99.90
12568;DHT22;6349;50.904;6.136;2023-07-22T05:15:57;14.50;99.90
12568;DHT22;6349;50.904;6.136;2023-07-22T05:17:58;14.60;99.90
12568;DHT22;6349;50.904;6.136;2023-07-22T05:19:59;14.50;99.90
12568;DHT22;6349;50.904;6.136;2023-07-22T05:22:01;14.60;99.90
12568;DHT22;6349;50.904;6.136;2023-07-22T05:24:03;14.60;99.90
12568;DHT22;6349;50.904;6.136;2023-07-22T05:26:04;14.60;99.90
12568;DHT22;6349;50.904;6.136;2023-07-22T05:28:06;14.60;99.90
12568;DHT22;6349;50.904;6.136;2023-07-22T05:30:08;14.60;99.90
12568;DHT22;6349;50.904;6.136;2023-07-22T05:32:10;14.60;99.90
12568;DHT22;6349;50.904;6.136;2023-07-22T05:34:10;14.60;99.90
12568;DHT22;6349;50.904;6.136;2023-07-22T05:36:12;14.70;99.90
12568;DHT22;6349;50.904;6.136;2023-07-22T05:38:14;14.70;99.90
12568;DHT22;6349;50.904;6.136;2023-07-22T05:40:16;14.70;99.90
12568;DHT22;6349;50.904;6.136;2023-07-22T05:42:18;14.60;99.90
12568;DHT22;6349;50.904;6.136;2023-07-22T05:44:20;14.60;99.90
12568;DHT22;6349;50.904;6.136;2023-07-22T05:46:21;14.60;99.90
12568;DHT22;6349;50.904;6.136;2023-07-22T05:48:22;14.60;99.90
12568;DHT22;6349;50.904;6.136;2023-07-22T05:50:23;14.60;99.90
12568;DHT22;6349;50.904;6.136;2023-07-22T05:52:25;14.70;99.90
12568;DHT22;6349;50.904;6.136;2023-07-22T05:54:27;14.70;99.90
12568;DHT22;6349;50.904;6.136;2023-07-22T05:56:29;14.70;99.90
12568;DHT22;6349;50.904;6.136;2023-07-22T05:58:29;14.70;99.90
12568;DHT22;6349;50.904;6.136;2023-07-22T06:00:33;14.80;99.90
12568;DHT22;6349;50.904;6.136;2023-07-22T06:02:34;14.80;99.90
12568;DHT22;6349;50.904;6.136;2023-07-22T06:04:34;14.80;99.90
12568;DHT22;6349;50.904;6.136;2023-07-22T06:06:36;14.90;99.90
12568;DHT22;6349;50.904;6.136;2023-07-22T06:08:38;14.90;99.90
12568;DHT22;6349;50.904;6.136;2023-07-22T06:10:40;15.00;99.90
12568;DHT22;6349;50.904;6.136;2023-07-22T06:12:41;15.00;99.90
12568;DHT22;6349;50.904;6.136;2023-07-22T06:14:43;15.00;99.90
12568;DHT22;6349;50.904;6.136;2023-07-22T06:16:43;15.10;99.90
12568;DHT22;6349;50.904;6.136;2023-07-22T06:18:44;15.10;99.90
12568;DHT22;6349;50.904;6.136;2023-07-22T06:20:46;15.10;99.90
12568;DHT22;6349;50.904;6.136;2023-07-22T06:22:48;15.20;99.90
12568;DHT22;6349;50.904;6.136;2023-07-22T06:24:49;15.20;99.90
12568;DHT22;6349;50.904;6.136;2023-07-22T06:26:50;15.30;99.90
12568;DHT22;6349;50.904;6.136;2023-07-22T06:28:51;15.30;99.90
12568;DHT22;6349;50.904;6.136;2023-07-22T06:30:51;15.40;99.90
12568;DHT22;6349;50.904;6.136;2023-07-22T06:32:52;15.40;99.90
12568;DHT22;6349;50.904;6.136;2023-07-22T06:34:52;15.50;99.90
12568;DHT22;6349;50.904;6.136;2023-07-22T06:36:54;15.50;99.90
12568;DHT22;6349;50.904;6.136;2023-07-22T06:38:56;15.60;99.90
12568;DHT22;6349;50.904;6.136;2023-07-22T06:40:59;15.60;99.90
12568;DHT22;6349;50.904;6.136;2023-07-22T06:43:00;15.50;99.90
12568;DHT22;6349;50.904;6.136;2023-07-22T06:45:02;15.60;99.90
12568;DHT22;6349;50.904;6.136;2023-07-22T06:47:03;15.60;99.90
12568;DHT22;6349;50.904;6.136;2023-07-22T06:49:04;15.70;99.90
12568;DHT22;6349;50.904;6.136;2023-07-22T06:51:06;15.70;99.90
12568;DHT22;6349;50.904;6.136;2023-07-22T06:53:09;15.70;99.90
12568;DHT22;6349;50.904;6.136;2023-07-22T06:55:11;15.80;99.90
12568;DHT22;6349;50.904;6.136;2023-07-22T06:57:11;15.80;99.90
12568;DHT22;6349;50.904;6.136;2023-07-22T06:59:13;15.90;99.90
12568;DHT22;6349;50.904;6.136;2023-07-22T07:01:15;15.80;99.90
12568;DHT22;6349;50.904;6.136;2023-07-22T07:03:17;15.90;99.90
12568;DHT22;6349;50.904;6.136;2023-07-22T07:05:18;15.90;99.90
12568;DHT22;6349;50.904;6.136;2023-07-22T07:07:20;16.00;99.90
12568;DHT22;6349;50.904;6.136;2023-07-22T07:09:22;16.10;99.90
12568;DHT22;6349;50.904;6.136;2023-07-22T07:11:24;16.20;99.90
12568;DHT22;6349;50.904;6.136;2023-07-22T07:13:26;16.30;99.90
12568;DHT22;6349;50.904;6.136;2023-07-22T07:15:29;16.30;99.90
12568;DHT22;6349;50.904;6.136;2023-07-22T07:17:30;16.40;99.90
12568;DHT22;6349;50.904;6.136;2023-07-22T07:19:32;16.50;99.90
12568;DHT22;6349;50.904;6.136;2023-07-22T07:21:34;16.50;99.90
12568;DHT22;6349;50.904;6.136;2023-07-22T07:23:36;16.50;99.90
12568;DHT22;6349;50.904;6.136;2023-07-22T07:25:38;16.50;99.90
12568;DHT22;6349;50.904;6.136;2023-07-22T07:27:39;16.60;99.90
12568;DHT22;6349;50.904;6.136;2023-07-22T07:29:41;16.60;99.90
12568;DHT22;6349;50.904;6.136;2023-07-22T07:31:43;16.60;99.90
12568;DHT22;6349;50.904;6.136;2023-07-22T07:33:45;16.60;99.90
12568;DHT22;6349;50.904;6.136;2023-07-22T07:35:49;16.70;99.90
12568;DHT22;6349;50.904;6.136;2023-07-22T07:37:51;16.60;99.90
12568;DHT22;6349;50.904;6.136;2023-07-22T07:39:53;16.80;99.90
12568;DHT22;6349;50.904;6.136;2023-07-22T07:41:54;16.80;99.90
12568;DHT22;6349;50.904;6.136;2023-07-22T07:43:56;16.90;99.90
12568;DHT22;6349;50.904;6.136;2023-07-22T07:46:16;16.90;99.90
12568;DHT22;6349;50.904;6.136;2023-07-22T07:48:19;17.00;99.90
12568;DHT22;6349;50.904;6.136;2023-07-22T07:50:21;17.10;99.90
12568;DHT22;6349;50.904;6.136;2023-07-22T07:52:23;17.10;99.90
12568;DHT22;6349;50.904;6.136;2023-07-22T07:54:25;17.20;99.90
12568;DHT22;6349;50.904;6.136;2023-07-22T07:56:27;17.30;99.90
12568;DHT22;6349;50.904;6.136;2023-07-22T07:58:29;17.20;99.90
12568;DHT22;6349;50.904;6.136;2023-07-22T08:00:32;17.30;99.90
12568;DHT22;6349;50.904;6.136;2023-07-22T08:02:34;17.30;99.90
12568;DHT22;6349;50.904;6.136;2023-07-22T08:04:36;17.20;99.90
12568;DHT22;6349;50.904;6.136;2023-07-22T08:06:38;17.30;99.90
12568;DHT22;6349;50.904;6.136;2023-07-22T08:08:40;17.30;99.90
12568;DHT22;6349;50.904;6.136;2023-07-22T08:10:42;17.30;99.90
12568;DHT22;6349;50.904;6.136;2023-07-22T08:12:44;17.30;99.90
12568;DHT22;6349;50.904;6.136;2023-07-22T08:14:46;17.30;99.90
12568;DHT22;6349;50.904;6.136;2023-07-22T08:16:47;17.30;99.90
12568;DHT22;6349;50.904;6.136;2023-07-22T08:18:48;17.40;99.90
12568;DHT22;6349;50.904;6.136;2023-07-22T08:20:48;17.40;99.90
12568;DHT22;6349;50.904;6.136;2023-07-22T08:22:50;17.50;99.90
12568;DHT22;6349;50.904;6.136;2023-07-22T08:24:52;17.60;99.90
12568;DHT22;6349;50.904;6.136;2023-07-22T08:26:53;17.70;99.90
12568;DHT22;6349;50.904;6.136;2023-07-22T08:28:55;17.80;99.90
12568;DHT22;6349;50.904;6.136;2023-07-22T08:30:56;17.80;99.90
12568;DHT22;6349;50.904;6.136;2023-07-22T08:32:58;17.70;99.90
12568;DHT22;6349;50.904;6.136;2023-07-22T08:34:58;17.80;99.90
12568;DHT22;6349;50.904;6.136;2023-07-22T08:37:00;17.70;99.90
12568;DHT22;6349;50.904;6.136;2023-07-22T08:39:02;17.80;99.90
12568;DHT22;6349;50.904;6.136;2023-07-22T08:41:05;17.90;99.90
12568;DHT22;6349;50.904;6.136;2023-07-22T08:43:09;18.00;99.90
12568;DHT22;6349;50.904;6.136;2023-07-22T08:45:11;18.10;99.90
12568;DHT22;6349;50.904;6.136;2023-07-22T08:47:16;18.20;99.90
12568;DHT22;6349;50.904;6.136;2023-07-22T08:49:19;18.20;99.90
12568;DHT22;6349;50.904;6.136;2023-07-22T08:51:22;18.30;99.90
12568;DHT22;6349;50.904;6.136;2023-07-22T08:53:25;18.40;99.90
12568;DHT22;6349;50.904;6.136;2023-07-22T08:55:28;18.50;99.90
12568;DHT22;6349;50.904;6.136;2023-07-22T08:57:33;18.50;99.90
12568;DHT22;6349;50.904;6.136;2023-07-22T08:59:38;18.60;99.90
12568;DHT22;6349;50.904;6.136;2023-07-22T09:01:41;18.70;99.90
12568;DHT22;6349;50.904;6.136;2023-07-22T09:03:43;18.70;99.90
12568;DHT22;6349;50.904;6.136;2023-07-22T09:05:46;18.70;99.90
12568;DHT22;6349;50.904;6.136;2023-07-22T09:07:49;18.80;99.90
12568;DHT22;6349;50.904;6.136;2023-07-22T09:09:52;18.60;99.90
12568;DHT22;6349;50.904;6.136;2023-07-22T09:11:55;18.60;99.90
12568;DHT22;6349;50.904;6.136;2023-07-22T09:13:57;18.60;99.90
12568;DHT22;6349;50.904;6.136;2023-07-22T09:15:59;18.60;99.90
12568;DHT22;6349;50.904;6.136;2023-07-22T09:18:00;18.60;99.90
12568;DHT22;6349;50.904;6.136;2023-07-22T09:20:02;18.70;99.90
12568;DHT22;6349;50.904;6.136;2023-07-22T09:22:05;18.70;99.90
12568;DHT22;6349;50.904;6.136;2023-07-22T09:24:22;18.70;99.90
12568;DHT22;6349;50.904;6.136;2023-07-22T09:26:24;18.80;99.90
12568;DHT22;6349;50.904;6.136;2023-07-22T09:28:26;18.90;99.90
12568;DHT22;6349;50.904;6.136;2023-07-22T09:30:38;19.00;99.90
12568;DHT22;6349;50.904;6.136;2023-07-22T09:32:40;19.10;99.90
12568;DHT22;6349;50.904;6.136;2023-07-22T09:35:08;19.20;99.90
12568;DHT22;6349;50.904;6.136;2023-07-22T09:37:10;19.30;99.90
12568;DHT22;6349;50.904;6.136;2023-07-22T09:39:14;19.40;99.90
12568;DHT22;6349;50.904;6.136;2023-07-22T09:41:19;19.50;99.90
12568;DHT22;6349;50.904;6.136;2023-07-22T09:43:23;19.50;99.90
12568;DHT22;6349;50.904;6.136;2023-07-22T09:45:31;19.50;99.90
12568;DHT22;6349;50.904;6.136;2023-07-22T09:47:40;19.40;99.90
12568;DHT22;6349;50.904;6.136;2023-07-22T09:49:45;19.40;99.90
12568;DHT22;6349;50.904;6.136;2023-07-22T09:51:50;19.40;99.90
12568;DHT22;6349;50.904;6.136;2023-07-22T09:54:04;19.30;99.90
12568;DHT22;6349;50.904;6.136;2023-07-22T09:56:07;19.40;99.90
12568;DHT22;6349;50.904;6.136;2023-07-22T09:58:09;19.40;99.90
12568;DHT22;6349;50.904;6.136;2023-07-22T10:00:15;19.60;99.90
12568;DHT22;6349;50.904;6.136;2023-07-22T10:02:18;19.60;99.90
12568;DHT22;6349;50.904;6.136;2023-07-22T10:04:21;19.70;99.90
12568;DHT22;6349;50.904;6.136;2023-07-22T10:06:30;19.80;99.90
12568;DHT22;6349;50.904;6.136;2023-07-22T10:08:34;19.90;99.90
12568;DHT22;6349;50.904;6.136;2023-07-22T10:10:38;19.90;99.90
12568;DHT22;6349;50.904;6.136;2023-07-22T10:12:41;20.00;99.90
12568;DHT22;6349;50.904;6.136;2023-07-22T10:14:44;20.10;99.90
12568;DHT22;6349;50.904;6.136;2023-07-22T10:16:47;20.00;99.90
12568;DHT22;6349;50.904;6.136;2023-07-22T10:18:49;20.00;99.90
12568;DHT22;6349;50.904;6.136;2023-07-22T10:20:52;20.00;99.90
12568;DHT22;6349;50.904;6.136;2023-07-22T10:22:54;20.10;99.90
12568;DHT22;6349;50.904;6.136;2023-07-22T10:24:59;20.10;99.90
12568;DHT22;6349;50.904;6.136;2023-07-22T10:27:02;20.20;99.90
12568;DHT22;6349;50.904;6.136;2023-07-22T10:29:04;20.30;99.90
12568;DHT22;6349;50.904;6.136;2023-07-22T10:31:06;20.30;99.90
12568;DHT22;6349;50.904;6.136;2023-07-22T10:33:09;20.40;99.90
12568;DHT22;6349;50.904;6.136;2023-07-22T10:37:33;20.40;99.90
12568;DHT22;6349;50.904;6.136;2023-07-22T10:39:35;20.40;99.90
12568;DHT22;6349;50.904;6.136;2023-07-22T10:41:38;20.30;99.90
12568;DHT22;6349;50.904;6.136;2023-07-22T10:43:40;20.30;99.90
12568;DHT22;6349;50.904;6.136;2023-07-22T10:45:50;20.20;99.90
12568;DHT22;6349;50.904;6.136;2023-07-22T10:48:10;20.30;99.90
12568;DHT22;6349;50.904;6.136;2023-07-22T10:50:11;20.40;99.90
12568;DHT22;6349;50.904;6.136;2023-07-22T10:52:14;20.50;99.90
12568;DHT22;6349;50.904;6.136;2023-07-22T10:54:30;20.60;99.90
12568;DHT22;6349;50.904;6.136;2023-07-22T10:56:34;20.60;99.90
12568;DHT22;6349;50.904;6.136;2023-07-22T10:58:56;20.80;99.90
12568;DHT22;6349;50.904;6.136;2023-07-22T11:01:22;21.00;99.90
12568;DHT22;6349;50.904;6.136;2023-07-22T11:03:27;21.10;99.90
12568;DHT22;6349;50.904;6.136;2023-07-22T11:05:48;21.20;99.90
12568;DHT22;6349;50.904;6.136;2023-07-22T11:07:50;21.30;99.90
12568;DHT22;6349;50.904;6.136;2023-07-22T11:09:54;21.50;99.90
12568;DHT22;6349;50.904;6.136;2023-07-22T11:14:24;21.70;99.90
12568;DHT22;6349;50.904;6.136;2023-07-22T11:16:29;21.70;99.90
12568;DHT22;6349;50.904;6.136;2023-07-22T11:18:42;21.80;99.90
12568;DHT22;6349;50.904;6.136;2023-07-22T11:20:42;21.90;99.90
12568;DHT22;6349;50.904;6.136;2023-07-22T11:22:43;22.00;99.90
12568;DHT22;6349;50.904;6.136;2023-07-22T11:24:45;22.00;99.90
12568;DHT22;6349;50.904;6.136;2023-07-22T11:26:47;22.10;99.90
12568;DHT22;6349;50.904;6.136;2023-07-22T11:28:49;22.20;99.90
12568;DHT22;6349;50.904;6.136;2023-07-22T11:30:50;22.20;99.90
12568;DHT22;6349;50.904;6.136;2023-07-22T11:32:52;22.20;99.90
12568;DHT22;6349;50.904;6.136;2023-07-22T11:34:52;22.30;99.90
12568;DHT22;6349;50.904;6.136;2023-07-22T11:36:54;22.40;99.90
12568;DHT22;6349;50.904;6.136;2023-07-22T11:41:04;22.60;99.90
12568;DHT22;6349;50.904;6.136;2023-07-22T11:43:05;22.60;99.90
12568;DHT22;6349;50.904;6.136;2023-07-22T11:45:06;22.70;99.90
12568;DHT22;6349;50.904;6.136;2023-07-22T11:47:07;22.70;99.90
12568;DHT22;6349;50.904;6.136;2023-07-22T11:49:09;22.70;99.90
12568;DHT22;6349;50.904;6.136;2023-07-22T11:51:10;22.70;99.90
12568;DHT22;6349;50.904;6.136;2023-07-22T11:53:12;22.70;99.90
12568;DHT22;6349;50.904;6.136;2023-07-22T11:55:14;22.70;99.90
12568;DHT22;6349;50.904;6.136;2023-07-22T11:57:20;22.70;99.90
12568;DHT22;6349;50.904;6.136;2023-07-22T11:59:39;22.60;99.90
12568;DHT22;6349;50.904;6.136;2023-07-22T12:01:44;22.60;99.90
12568;DHT22;6349;50.904;6.136;2023-07-22T12:03:47;22.50;99.90
12568;DHT22;6349;50.904;6.136;2023-07-22T12:05:48;22.50;99.90
12568;DHT22;6349;50.904;6.136;2023-07-22T12:07:49;22.60;99.90
12568;DHT22;6349;50.904;6.136;2023-07-22T12:09:51;22.70;99.90
12568;DHT22;6349;50.904;6.136;2023-07-22T12:11:59;22.70;99.90
12568;DHT22;6349;50.904;6.136;2023-07-22T12:14:12;22.80;99.90
12568;DHT22;6349;50.904;6.136;2023-07-22T12:16:13;22.80;99.90
12568;DHT22;6349;50.904;6.136;2023-07-22T12:18:14;22.90;99.90
12568;DHT22;6349;50.904;6.136;2023-07-22T12:20:16;22.90;99.90
12568;DHT22;6349;50.904;6.136;2023-07-22T12:22:16;23.00;99.90
12568;DHT22;6349;50.904;6.136;2023-07-22T12:24:18;23.10;99.90
12568;DHT22;6349;50.904;6.136;2023-07-22T12:26:21;23.00;99.90
12568;DHT22;6349;50.904;6.136;2023-07-22T12:28:23;23.20;99.90
12568;DHT22;6349;50.904;6.136;2023-07-22T12:30:26;23.20;99.90
12568;DHT22;6349;50.904;6.136;2023-07-22T12:32:29;23.20;99.90
12568;DHT22;6349;50.904;6.136;2023-07-22T12:34:31;23.20;99.90
12568;DHT22;6349;50.904;6.136;2023-07-22T12:36:32;23.30;99.90
12568;DHT22;6349;50.904;6.136;2023-07-22T12:38:35;23.30;99.90
12568;DHT22;6349;50.904;6.136;2023-07-22T12:40:38;23.30;99.90
12568;DHT22;6349;50.904;6.136;2023-07-22T12:42:40;23.20;99.90
12568;DHT22;6349;50.904;6.136;2023-07-22T12:44:41;23.30;99.90
12568;DHT22;6349;50.904;6.136;2023-07-22T12:46:42;23.30;99.90
12568;DHT22;6349;50.904;6.136;2023-07-22T12:48:44;23.30;99.90
12568;DHT22;6349;50.904;6.136;2023-07-22T12:50:46;23.40;99.90
12568;DHT22;6349;50.904;6.136;2023-07-22T12:52:50;23.40;99.90
12568;DHT22;6349;50.904;6.136;2023-07-22T12:54:53;23.50;99.90
12568;DHT22;6349;50.904;6.136;2023-07-22T12:56:55;23.50;99.90
12568;DHT22;6349;50.904;6.136;2023-07-22T12:58:56;23.50;99.90
12568;DHT22;6349;50.904;6.136;2023-07-22T13:00:59;23.60;99.90
12568;DHT22;6349;50.904;6.136;2023-07-22T13:03:01;23.60;99.90
12568;DHT22;6349;50.904;6.136;2023-07-22T13:05:02;23.60;99.90
12568;DHT22;6349;50.904;6.136;2023-07-22T13:07:04;23.70;99.90
12568;DHT22;6349;50.904;6.136;2023-07-22T13:09:07;23.80;99.90
12568;DHT22;6349;50.904;6.136;2023-07-22T13:11:13;23.80;99.90
12568;DHT22;6349;50.904;6.136;2023-07-22T13:13:14;23.90;99.90